createdAt,value
2023-02-06T00:01:34.163Z,14.80
2023-02-06T00:04:03.347Z,15.50
2023-02-06T00:06:33.754Z,12.37
2023-02-06T00:09:03.603Z,14.27
2023-02-06T00:11:32.013Z,10.80
2023-02-06T00:14:00.376Z,12.87
2023-02-06T00:16:30.841Z,14.30
2023-02-06T00:19:00.609Z,14.03
2023-02-06T00:21:29.898Z,15.17
2023-02-06T00:24:01.707Z,13.67
2023-02-06T00:26:31.307Z,17.00
2023-02-06T00:28:59.757Z,14.20
2023-02-06T00:31:28.100Z,18.40
2023-02-06T00:33:56.273Z,13.63
2023-02-06T00:36:24.622Z,12.93
2023-02-06T00:38:53.230Z,13.00
2023-02-06T00:41:23.097Z,13.47
2023-02-06T00:43:51.431Z,10.37
2023-02-06T00:46:19.676Z,12.03
2023-02-06T00:48:47.978Z,9.93
2023-02-06T00:51:16.351Z,11.53
2023-02-06T00:53:44.707Z,11.60
2023-02-06T00:56:12.998Z,12.37
2023-02-06T00:58:42.811Z,11.97
2023-02-06T01:01:11.277Z,10.13
2023-02-06T01:03:39.599Z,10.37
2023-02-06T01:06:08.059Z,12.40
2023-02-06T01:08:36.591Z,11.93
2023-02-06T01:11:11.369Z,13.17
2023-02-06T01:13:42.580Z,12.93
2023-02-06T01:16:11.798Z,11.23
2023-02-06T01:18:41.179Z,12.97
2023-02-06T01:21:11.135Z,14.07
2023-02-06T01:23:40.762Z,15.33
2023-02-06T01:26:09.770Z,12.37
2023-02-06T01:28:38.225Z,12.77
2023-02-06T01:31:13.416Z,9.23
2023-02-06T01:33:42.127Z,12.53
2023-02-06T01:36:11.124Z,11.00
2023-02-06T01:38:40.098Z,11.87
2023-02-06T01:41:09.903Z,11.87
2023-02-06T01:43:41.094Z,11.07
2023-02-06T01:46:09.884Z,12.07
2023-02-06T01:48:43.773Z,10.13
2023-02-06T01:51:16.117Z,10.70
2023-02-06T01:53:46.754Z,10.87
2023-02-06T01:56:19.537Z,11.77
2023-02-06T01:58:53.009Z,10.90
2023-02-06T02:01:22.218Z,12.57
2023-02-06T02:03:55.989Z,12.27
2023-02-06T02:06:26.702Z,10.53
2023-02-06T02:08:58.423Z,14.37
2023-02-06T02:11:32.121Z,13.47
2023-02-06T02:14:02.387Z,11.60
2023-02-06T02:16:41.724Z,11.47
2023-02-06T02:19:54.281Z,13.20
2023-02-06T02:22:47.207Z,14.13
2023-02-06T02:25:57.931Z,16.63
2023-02-06T02:29:07.335Z,15.07
2023-02-06T02:32:09.846Z,14.70
2023-02-06T02:35:10.879Z,13.20
2023-02-06T02:37:48.333Z,10.70
2023-02-06T02:40:23.843Z,9.50
2023-02-06T02:43:02.546Z,10.70
2023-02-06T02:45:39.257Z,12.40
2023-02-06T02:48:12.046Z,13.50
2023-02-06T02:50:42.542Z,11.83
2023-02-06T02:53:11.706Z,12.93
2023-02-06T02:55:39.944Z,9.37
2023-02-06T02:58:11.948Z,13.77
2023-02-06T03:00:45.619Z,12.70
2023-02-06T03:03:15.672Z,14.23
2023-02-06T03:05:57.029Z,14.50
2023-02-06T03:08:35.779Z,11.23
2023-02-06T03:11:13.421Z,12.80
2023-02-06T03:13:46.816Z,12.57
2023-02-06T03:16:19.835Z,12.93
2023-02-06T03:18:51.840Z,10.83
2023-02-06T03:21:23.107Z,12.50
2023-02-06T03:23:55.799Z,11.97
2023-02-06T03:26:27.440Z,10.03
2023-02-06T03:28:59.954Z,11.00
2023-02-06T03:31:33.468Z,11.10
2023-02-06T03:34:07.480Z,10.67
2023-02-06T03:36:37.611Z,9.23
2023-02-06T03:39:06.114Z,10.80
2023-02-06T03:41:38.610Z,10.87
2023-02-06T03:44:11.032Z,9.40
2023-02-06T03:46:42.848Z,11.53
2023-02-06T03:49:16.081Z,12.93
2023-02-06T03:51:48.463Z,9.73
2023-02-06T03:54:20.613Z,8.97
2023-02-06T03:56:54.278Z,11.27
2023-02-06T03:59:23.096Z,8.67
2023-02-06T04:01:55.554Z,7.77
2023-02-06T04:04:29.287Z,10.10
2023-02-06T04:07:01.608Z,10.20
2023-02-06T04:09:30.039Z,9.93
2023-02-06T04:11:58.313Z,9.77
2023-02-06T04:14:26.841Z,8.63
2023-02-06T04:16:55.821Z,9.13
2023-02-06T04:19:24.174Z,9.93
2023-02-06T04:21:52.572Z,10.53
2023-02-06T04:24:22.380Z,11.37
2023-02-06T04:26:50.801Z,6.77
2023-02-06T04:29:19.363Z,6.70
2023-02-06T04:31:47.852Z,7.20
2023-02-06T04:34:16.228Z,6.40
2023-02-06T04:36:44.682Z,6.27
2023-02-06T04:39:13.334Z,6.40
2023-02-06T04:41:43.080Z,5.80
2023-02-06T04:44:11.679Z,8.20
2023-02-06T04:46:39.997Z,7.83
2023-02-06T04:49:08.327Z,8.17
2023-02-06T04:51:36.639Z,8.30
2023-02-06T04:54:05.743Z,12.03
2023-02-06T04:56:35.041Z,7.57
2023-02-06T04:59:04.825Z,9.13
2023-02-06T05:01:33.372Z,8.60
2023-02-06T05:04:01.406Z,8.80
2023-02-06T05:06:29.759Z,9.47
2023-02-06T05:08:57.884Z,8.93
2023-02-06T05:11:26.171Z,9.37
2023-02-06T05:13:54.373Z,8.13
2023-02-06T05:16:23.793Z,9.83
2023-02-06T05:18:55.041Z,8.73
2023-02-06T05:21:24.499Z,9.47
2023-02-06T05:23:52.900Z,8.83
2023-02-06T05:26:21.487Z,11.03
2023-02-06T05:28:49.653Z,8.30
2023-02-06T05:31:19.994Z,9.27
2023-02-06T05:33:52.598Z,10.40
2023-02-06T05:36:21.514Z,9.33
2023-02-06T05:38:50.428Z,9.23
2023-02-06T05:41:19.032Z,9.30
2023-02-06T05:43:47.322Z,9.07
2023-02-06T05:46:15.727Z,8.87
2023-02-06T05:48:43.821Z,10.27
2023-02-06T05:51:13.579Z,13.50
2023-02-06T05:53:41.895Z,9.93
2023-02-06T05:56:10.335Z,13.50
2023-02-06T05:58:38.382Z,11.37
2023-02-06T06:01:06.517Z,12.67
2023-02-06T06:03:34.605Z,13.00
2023-02-06T06:06:02.764Z,9.77
2023-02-06T06:08:32.216Z,12.73
2023-02-06T06:11:02.094Z,7.77
2023-02-06T06:13:30.291Z,8.67
2023-02-06T06:15:58.511Z,10.17
2023-02-06T06:18:27.586Z,10.37
2023-02-06T06:20:55.599Z,10.60
2023-02-06T06:23:23.699Z,14.03
2023-02-06T06:25:53.144Z,14.00
2023-02-06T06:28:21.271Z,10.50
2023-02-06T06:30:49.356Z,9.47
2023-02-06T06:33:17.855Z,14.53
2023-02-06T06:35:45.979Z,12.03
2023-02-06T06:38:14.031Z,11.10
2023-02-06T06:40:42.738Z,11.37
2023-02-06T06:43:12.335Z,11.50
2023-02-06T06:45:40.486Z,10.23
2023-02-06T06:48:08.602Z,13.77
2023-02-06T06:50:36.761Z,12.90
2023-02-06T06:53:05.240Z,10.50
2023-02-06T06:55:33.391Z,14.63
2023-02-06T06:58:01.613Z,11.83
2023-02-06T07:00:31.125Z,13.67
2023-02-06T07:02:59.484Z,13.17
2023-02-06T07:05:27.707Z,15.07
2023-02-06T07:07:55.788Z,16.23
2023-02-06T07:10:24.046Z,13.60
2023-02-06T07:12:53.551Z,17.83
2023-02-06T07:15:22.404Z,14.30
2023-02-06T07:17:51.908Z,12.90
2023-02-06T07:20:20.153Z,13.10
2023-02-06T07:22:50.270Z,14.83
2023-02-06T07:25:20.293Z,16.07
2023-02-06T07:27:48.900Z,19.80
2023-02-06T07:30:17.204Z,12.17
2023-02-06T07:32:45.442Z,11.30
2023-02-06T07:35:15.967Z,13.37
2023-02-06T07:37:44.092Z,14.63
2023-02-06T07:40:13.592Z,14.87
2023-02-06T07:42:41.765Z,16.87
2023-02-06T07:45:10.698Z,16.47
2023-02-06T07:47:38.889Z,11.60
2023-02-06T07:50:08.007Z,13.70
2023-02-06T07:52:37.702Z,17.90
2023-02-06T07:55:06.510Z,13.67
2023-02-06T07:57:34.570Z,14.83
2023-02-06T08:00:02.750Z,21.67
2023-02-06T08:02:30.880Z,20.33
2023-02-06T08:04:59.092Z,16.43
2023-02-06T08:07:27.264Z,16.37
2023-02-06T08:09:56.806Z,14.63
2023-02-06T08:12:25.035Z,13.83
2023-02-06T08:14:53.250Z,13.77
2023-02-06T08:17:21.360Z,18.47
2023-02-06T08:19:50.171Z,15.50
2023-02-06T08:22:18.301Z,15.17
2023-02-06T08:24:46.830Z,15.10
2023-02-06T08:27:16.348Z,16.60
2023-02-06T08:29:44.608Z,15.70
2023-02-06T08:32:13.080Z,14.47
2023-02-06T08:34:41.625Z,14.50
2023-02-06T08:37:09.850Z,18.63
2023-02-06T08:39:38.860Z,16.17
2023-02-06T08:42:07.201Z,18.33
2023-02-06T08:44:36.990Z,14.70
2023-02-06T08:47:10.414Z,14.50
2023-02-06T08:49:39.249Z,14.70
2023-02-06T08:52:07.518Z,16.53
2023-02-06T08:54:38.407Z,16.53
2023-02-06T08:57:07.374Z,17.97
2023-02-06T08:59:37.201Z,15.13
2023-02-06T09:02:08.279Z,17.63
2023-02-06T09:04:37.824Z,19.13
2023-02-06T09:07:06.104Z,17.53
2023-02-06T09:09:34.266Z,22.47
2023-02-06T09:12:03.963Z,19.50
2023-02-06T09:14:32.856Z,19.13
2023-02-06T09:17:02.971Z,21.47
2023-02-06T09:19:31.307Z,25.23
2023-02-06T09:21:59.601Z,24.80
2023-02-06T09:24:30.175Z,23.73
2023-02-06T09:27:00.302Z,20.93
2023-02-06T09:29:31.801Z,22.27
2023-02-06T09:32:01.956Z,25.07
2023-02-06T09:34:30.409Z,23.67
2023-02-06T09:36:58.647Z,18.60
2023-02-06T09:39:27.209Z,28.03
2023-02-06T09:41:58.707Z,22.57
2023-02-06T09:44:31.705Z,22.37
2023-02-06T09:47:07.355Z,26.73
2023-02-06T09:49:40.538Z,32.83
2023-02-06T09:52:30.544Z,28.00
2023-02-06T09:55:04.327Z,31.43
2023-02-06T09:57:40.005Z,29.83
2023-02-06T10:00:16.741Z,36.03
2023-02-06T10:03:13.918Z,30.33
2023-02-06T10:05:53.590Z,28.37
2023-02-06T10:08:25.410Z,33.17
2023-02-06T10:10:57.095Z,33.30
2023-02-06T10:13:30.084Z,31.43
2023-02-06T10:16:02.543Z,31.37
2023-02-06T10:18:37.178Z,28.90
2023-02-06T10:21:13.136Z,28.37
2023-02-06T10:23:47.604Z,33.70
2023-02-06T10:26:18.326Z,24.30
2023-02-06T10:28:50.189Z,28.00
2023-02-06T10:31:44.934Z,20.27
2023-02-06T10:34:42.585Z,26.97
2023-02-06T10:37:21.533Z,25.67
2023-02-06T10:40:30.783Z,25.07
2023-02-06T10:43:04.331Z,20.27
2023-02-06T10:45:43.411Z,17.77
2023-02-06T10:48:18.875Z,19.40
2023-02-06T10:50:51.956Z,18.57
2023-02-06T10:53:24.091Z,25.97
2023-02-06T10:55:56.534Z,19.63
2023-02-06T10:58:29.985Z,18.47
2023-02-06T11:01:00.491Z,21.30
2023-02-06T11:03:32.573Z,21.07
2023-02-06T11:06:03.894Z,19.07
2023-02-06T11:08:34.605Z,20.97
2023-02-06T11:11:18.925Z,21.33
2023-02-06T11:13:49.945Z,19.47
2023-02-06T11:16:24.286Z,21.50
2023-02-06T11:18:53.432Z,21.43
2023-02-06T11:21:50.945Z,25.67
2023-02-06T11:24:21.012Z,20.40
2023-02-06T11:26:52.684Z,23.07
2023-02-06T11:29:22.953Z,24.20
2023-02-06T11:31:54.504Z,36.07
2023-02-06T11:34:27.420Z,27.17
2023-02-06T11:36:59.235Z,22.97
2023-02-06T11:39:31.365Z,24.67
2023-02-06T11:42:01.652Z,29.60
2023-02-06T11:44:35.773Z,26.07
2023-02-06T11:47:22.777Z,28.53
2023-02-06T11:49:51.818Z,29.63
2023-02-06T11:52:31.262Z,30.70
2023-02-06T11:55:02.565Z,27.67
2023-02-06T11:57:33.492Z,28.67
2023-02-06T12:00:05.619Z,30.70
2023-02-06T12:02:35.652Z,31.30
2023-02-06T12:05:08.225Z,33.47
2023-02-06T12:07:40.644Z,36.73
2023-02-06T12:10:15.832Z,30.07
2023-02-06T12:12:49.418Z,32.17
2023-02-06T12:15:45.843Z,30.33
2023-02-06T12:18:15.388Z,29.33
2023-02-06T12:20:50.944Z,31.20
2023-02-06T12:23:25.474Z,33.40
2023-02-06T12:25:57.375Z,32.57
2023-02-06T12:28:30.134Z,29.90
2023-02-06T12:31:04.630Z,25.80
2023-02-06T12:33:38.564Z,26.60
2023-02-06T12:36:12.421Z,27.40
2023-02-06T12:38:53.804Z,24.33
2023-02-06T12:41:39.863Z,23.63
2023-02-06T12:44:19.349Z,25.10
2023-02-06T12:46:52.638Z,24.10
2023-02-06T12:49:27.502Z,26.47
2023-02-06T12:51:59.339Z,24.37
2023-02-06T12:54:31.371Z,23.83
2023-02-06T12:57:05.303Z,25.20
2023-02-06T12:59:57.612Z,28.13
2023-02-06T13:03:05.389Z,24.30
2023-02-06T13:05:37.905Z,22.93
2023-02-06T13:08:10.630Z,21.50
2023-02-06T13:10:41.456Z,27.27
2023-02-06T13:13:27.172Z,24.63
2023-02-06T13:15:57.651Z,20.63
2023-02-06T13:18:52.649Z,31.67
2023-02-06T13:21:24.220Z,28.43
2023-02-06T13:24:15.669Z,25.57
2023-02-06T13:27:10.624Z,27.27
2023-02-06T13:29:42.453Z,24.03
2023-02-06T13:32:43.265Z,23.30
2023-02-06T13:35:28.096Z,28.63
2023-02-06T13:38:27.965Z,25.17
2023-02-06T13:41:28.063Z,21.53
2023-02-06T13:44:00.445Z,28.23
2023-02-06T13:46:46.056Z,30.63
2023-02-06T13:49:42.988Z,24.40
2023-02-06T13:52:19.724Z,29.17
2023-02-06T13:55:06.440Z,26.70
2023-02-06T13:57:44.667Z,31.67
2023-02-06T14:00:19.610Z,30.73
2023-02-06T14:02:49.810Z,31.27
2023-02-06T14:05:21.877Z,32.77
2023-02-06T14:08:09.516Z,30.57
2023-02-06T14:10:56.923Z,32.67
2023-02-06T14:13:42.245Z,30.03
2023-02-06T14:16:25.386Z,27.57
2023-02-06T14:18:59.640Z,28.07
2023-02-06T14:21:38.756Z,25.57
2023-02-06T14:24:27.675Z,28.47
2023-02-06T14:27:15.802Z,28.33
2023-02-06T14:29:52.342Z,25.20
2023-02-06T14:32:38.924Z,25.17
2023-02-06T14:35:42.723Z,31.73
2023-02-06T14:38:39.308Z,26.70
2023-02-06T14:41:07.852Z,23.37
2023-02-06T14:43:41.599Z,25.73
2023-02-06T14:46:13.467Z,27.80
2023-02-06T14:48:47.710Z,28.60
2023-02-06T14:51:26.195Z,29.03
2023-02-06T14:53:57.087Z,28.13
2023-02-06T14:56:31.509Z,29.00
2023-02-06T14:59:15.214Z,29.33
2023-02-06T15:01:45.726Z,32.17
2023-02-06T15:04:17.010Z,31.67
2023-02-06T15:06:51.729Z,34.40
2023-02-06T15:09:31.457Z,29.60
2023-02-06T15:12:01.624Z,34.10
2023-02-06T15:14:32.160Z,29.97
2023-02-06T15:17:00.982Z,29.57
2023-02-06T15:19:32.761Z,28.73
2023-02-06T15:22:03.187Z,29.70
2023-02-06T15:24:44.349Z,25.40
2023-02-06T15:27:22.413Z,26.00
2023-02-06T15:29:51.458Z,30.07
2023-02-06T15:32:27.330Z,30.00
2023-02-06T15:34:57.450Z,25.43
2023-02-06T15:37:29.385Z,25.83
2023-02-06T15:40:02.490Z,24.87
2023-02-06T15:42:30.771Z,27.40
2023-02-06T15:44:59.443Z,24.83
2023-02-06T15:47:27.611Z,27.37
2023-02-06T15:50:00.466Z,31.83
2023-02-06T15:52:38.257Z,28.97
2023-02-06T15:55:07.251Z,25.03
2023-02-06T15:57:39.488Z,27.97
2023-02-06T16:00:23.350Z,26.83
2023-02-06T16:02:53.007Z,27.53
2023-02-06T16:05:27.282Z,24.13
2023-02-06T16:07:56.301Z,26.13
2023-02-06T16:10:26.846Z,30.63
2023-02-06T16:12:57.392Z,28.90
2023-02-06T16:15:29.631Z,30.63
2023-02-06T16:18:00.039Z,28.53
2023-02-06T16:20:36.979Z,39.17
2023-02-06T16:23:30.765Z,28.10
2023-02-06T16:26:07.422Z,35.57
2023-02-06T16:28:43.107Z,32.10
2023-02-06T16:31:14.008Z,29.17
2023-02-06T16:33:44.796Z,25.70
2023-02-06T16:36:17.220Z,34.03
2023-02-06T16:38:54.125Z,25.33
2023-02-06T16:41:33.904Z,31.40
2023-02-06T16:44:03.657Z,28.07
2023-02-06T16:46:32.060Z,32.17
2023-02-06T16:49:01.184Z,26.83
2023-02-06T16:51:33.157Z,26.53
2023-02-06T16:54:01.542Z,28.70
2023-02-06T16:56:29.928Z,29.07
2023-02-06T16:58:58.369Z,30.53
2023-02-06T17:01:29.645Z,32.80
2023-02-06T17:03:57.980Z,31.17
2023-02-06T17:06:28.401Z,31.90
2023-02-06T17:09:03.265Z,32.20
2023-02-06T17:11:31.640Z,33.50
2023-02-06T17:13:59.926Z,31.07
2023-02-06T17:16:29.538Z,31.27
2023-02-06T17:18:57.756Z,32.83
2023-02-06T17:21:28.282Z,32.57
2023-02-06T17:23:57.751Z,31.90
2023-02-06T17:26:26.073Z,31.20
2023-02-06T17:28:54.559Z,26.50
2023-02-06T17:31:22.952Z,33.47
2023-02-06T17:33:51.227Z,31.20
2023-02-06T17:36:22.383Z,31.90
2023-02-06T17:38:50.541Z,32.80
2023-02-06T17:41:19.904Z,34.40
2023-02-06T17:43:47.947Z,30.67
2023-02-06T17:46:16.036Z,28.70
2023-02-06T17:48:44.608Z,28.07
2023-02-06T17:51:12.889Z,31.03
2023-02-06T17:53:40.976Z,35.07
2023-02-06T17:56:12.685Z,31.43
2023-02-06T17:58:43.315Z,29.50
2023-02-06T18:01:12.837Z,28.83
2023-02-06T18:03:41.103Z,30.60
2023-02-06T18:06:10.580Z,29.67
2023-02-06T18:08:39.351Z,29.40
2023-02-06T18:11:11.756Z,33.87
2023-02-06T18:13:42.530Z,32.63
2023-02-06T18:16:15.686Z,35.53
2023-02-06T18:18:43.875Z,32.67
2023-02-06T18:21:12.413Z,32.57
2023-02-06T18:23:40.626Z,32.27
2023-02-06T18:26:10.637Z,35.50
2023-02-06T18:28:41.082Z,34.77
2023-02-06T18:31:22.961Z,36.13
2023-02-06T18:33:51.252Z,32.47
2023-02-06T18:36:19.837Z,37.93
2023-02-06T18:38:48.060Z,37.50
2023-02-06T18:41:34.010Z,43.30
2023-02-06T18:44:04.545Z,37.87
2023-02-06T18:46:32.679Z,32.97
2023-02-06T18:49:01.452Z,31.93
2023-02-06T18:51:30.678Z,33.87
2023-02-06T18:53:59.411Z,31.83
2023-02-06T18:56:27.625Z,27.73
2023-02-06T18:58:56.341Z,32.37
2023-02-06T19:01:26.530Z,26.97
2023-02-06T19:03:55.090Z,31.00
2023-02-06T19:06:25.091Z,37.50
2023-02-06T19:08:53.142Z,31.83
2023-02-06T19:11:21.210Z,32.23
2023-02-06T19:13:49.610Z,34.97
2023-02-06T19:16:19.764Z,29.13
2023-02-06T19:18:50.268Z,31.20
2023-02-06T19:21:20.326Z,28.67
2023-02-06T19:23:54.842Z,30.53
2023-02-06T19:26:23.498Z,27.97
2023-02-06T19:28:52.094Z,29.93
2023-02-06T19:31:23.897Z,34.43
2023-02-06T19:33:55.279Z,33.07
2023-02-06T19:36:25.237Z,35.50
2023-02-06T19:38:56.774Z,37.10
2023-02-06T19:41:26.514Z,37.23
2023-02-06T19:43:56.407Z,36.50
2023-02-06T19:46:26.310Z,33.13
2023-02-06T19:48:56.334Z,34.37
2023-02-06T19:51:26.448Z,32.13
2023-02-06T19:53:56.795Z,38.40
2023-02-06T19:56:26.981Z,33.50
2023-02-06T19:58:56.015Z,33.17
2023-02-06T20:01:25.284Z,35.37
2023-02-06T20:03:56.094Z,31.63
2023-02-06T20:06:24.459Z,32.57
2023-02-06T20:08:52.536Z,34.20
2023-02-06T20:11:22.888Z,30.70
2023-02-06T20:13:53.990Z,32.87
2023-02-06T20:16:24.274Z,35.07
2023-02-06T20:18:52.627Z,33.80
2023-02-06T20:21:26.741Z,35.40
2023-02-06T20:23:56.426Z,35.60
2023-02-06T20:26:26.706Z,33.07
2023-02-06T20:28:55.677Z,30.40
2023-02-06T20:31:23.849Z,28.60
2023-02-06T20:33:52.605Z,28.90
2023-02-06T20:36:24.147Z,25.33
2023-02-06T20:38:53.728Z,32.50
2023-02-06T20:41:26.247Z,36.23
2023-02-06T20:43:56.590Z,33.33
2023-02-06T20:46:25.231Z,35.67
2023-02-06T20:48:56.686Z,31.83
2023-02-06T20:51:27.186Z,39.00
2023-02-06T20:53:55.753Z,41.53
2023-02-06T20:56:24.765Z,35.13
2023-02-06T20:58:53.189Z,34.50
2023-02-06T21:01:23.165Z,35.30
2023-02-06T21:03:52.577Z,32.10
2023-02-06T21:06:20.917Z,33.37
2023-02-06T21:08:56.478Z,32.60
2023-02-06T21:11:29.273Z,34.93
2023-02-06T21:13:58.740Z,34.07
2023-02-06T21:16:27.555Z,35.57
2023-02-06T21:18:55.997Z,33.90
2023-02-06T21:21:25.519Z,40.60
2023-02-06T21:23:56.631Z,33.67
2023-02-06T21:26:25.035Z,36.40
2023-02-06T21:28:54.052Z,36.60
2023-02-06T21:31:25.157Z,35.60
2023-02-06T21:33:53.913Z,37.53
2023-02-06T21:36:23.024Z,41.83
2023-02-06T21:38:51.500Z,37.23
2023-02-06T21:41:22.522Z,43.77
2023-02-06T21:43:50.855Z,40.27
2023-02-06T21:46:19.307Z,41.10
2023-02-06T21:48:53.371Z,39.30
2023-02-06T21:51:23.271Z,38.47
2023-02-06T21:53:51.690Z,37.63
2023-02-06T21:56:23.625Z,43.50
2023-02-06T21:58:52.386Z,43.33
2023-02-06T22:01:22.825Z,38.93
2023-02-06T22:03:52.054Z,42.77
2023-02-06T22:06:20.986Z,39.67
2023-02-06T22:08:51.914Z,41.07
2023-02-06T22:11:24.032Z,40.47
2023-02-06T22:13:54.509Z,42.70
2023-02-06T22:16:24.846Z,38.37
2023-02-06T22:18:53.238Z,36.80
2023-02-06T22:21:23.698Z,37.73
2023-02-06T22:23:53.004Z,33.03
2023-02-06T22:26:22.851Z,40.47
2023-02-06T22:28:51.067Z,38.87
2023-02-06T22:31:21.094Z,37.43
2023-02-06T22:33:49.840Z,31.83
2023-02-06T22:36:20.283Z,39.23
2023-02-06T22:38:49.587Z,36.83
2023-02-06T22:41:18.650Z,37.87
2023-02-06T22:43:50.662Z,36.33
2023-02-06T22:46:21.194Z,33.00
2023-02-06T22:48:49.581Z,36.10
2023-02-06T22:51:18.016Z,39.63
2023-02-06T22:53:45.377Z,39.37
2023-02-06T22:56:32.830Z,39.83
2023-02-06T22:59:05.086Z,44.30
2023-02-06T23:01:35.459Z,40.30
2023-02-06T23:04:04.914Z,37.73
2023-02-06T23:06:34.457Z,34.13
2023-02-06T23:09:04.238Z,38.33
2023-02-06T23:11:32.917Z,41.43
2023-02-06T23:14:05.336Z,36.13
2023-02-06T23:16:34.869Z,222.73
2023-02-06T23:19:05.437Z,167.43
2023-02-06T23:21:36.879Z,93.20
2023-02-06T23:24:06.201Z,59.90
2023-02-06T23:26:35.395Z,40.80
2023-02-06T23:29:07.423Z,34.60
2023-02-06T23:31:36.623Z,33.43
2023-02-06T23:34:05.119Z,32.57
2023-02-06T23:36:33.753Z,30.20
2023-02-06T23:39:03.661Z,29.03
2023-02-06T23:41:32.137Z,34.27
2023-02-06T23:44:02.129Z,33.70
2023-02-06T23:46:35.231Z,31.40
2023-02-06T23:49:03.634Z,32.97
2023-02-06T23:51:32.977Z,33.90
2023-02-06T23:54:01.574Z,33.53
2023-02-06T23:56:32.144Z,34.57
2023-02-06T23:59:01.719Z,31.07
